Time;durP1;ratioP1;P1;durP2;ratioP2;P2;SDS_P1;SDS_P2;PMS_P1;PMS_P2;Temp;Humidity;BMP_temperature;BMP_pressure;BME280_temperature;BME280_humidity;BME280_pressure;Samples;Min_cycle;Max_cycle;Signal;HPM_P1;HPM_P2
2023/09/11 00:00:35;;;;;;;10.23;9.23;;;16.50;99.90;;;;;;2092307;28;20456;-73
2023/09/11 00:01:36;;;;;;;10.27;9.20;;;16.50;99.90;;;;;;2099706;28;20218;-73
2023/09/11 00:02:36;;;;;;;10.77;9.67;;;16.40;99.90;;;;;;2091116;28;20448;-73
2023/09/11 00:03:37;;;;;;;11.93;9.00;;;16.50;99.90;;;;;;2103140;28;20346;-73
2023/09/11 00:04:38;;;;;;;12.03;8.60;;;16.40;99.90;;;;;;2102255;28;20217;-73
2023/09/11 00:05:38;;;;;;;10.90;9.57;;;16.50;99.90;;;;;;2101233;28;20246;-73
2023/09/11 00:06:39;;;;;;;10.80;9.70;;;16.40;99.90;;;;;;2103619;28;20253;-73
2023/09/11 00:07:40;;;;;;;9.57;8.67;;;16.30;99.90;;;;;;2111991;28;20349;-73
2023/09/11 00:08:41;;;;;;;10.73;9.57;;;16.30;99.90;;;;;;2100206;28;20673;-73
2023/09/11 00:09:41;;;;;;;10.73;9.67;;;16.30;99.90;;;;;;2094539;28;20226;-73
2023/09/11 00:10:42;;;;;;;11.43;10.17;;;16.20;99.90;;;;;;2095104;28;20219;-73
2023/09/11 00:11:43;;;;;;;11.50;10.33;;;16.20;99.90;;;;;;2100633;28;20264;-73
2023/09/11 00:12:43;;;;;;;10.93;9.93;;;16.20;99.90;;;;;;2103191;28;20214;-73
2023/09/11 00:13:44;;;;;;;11.17;9.97;;;16.30;99.90;;;;;;2100605;28;20245;-73
2023/09/11 00:14:45;;;;;;;11.57;10.50;;;16.30;99.90;;;;;;2096159;28;20287;-73
2023/09/11 00:15:45;;;;;;;11.13;9.43;;;16.30;99.90;;;;;;2103317;28;20603;-70
2023/09/11 00:16:46;;;;;;;11.17;9.47;;;16.30;99.90;;;;;;2103409;28;20233;-73
2023/09/11 00:17:47;;;;;;;11.93;10.13;;;16.30;99.90;;;;;;2103566;28;20654;-73
2023/09/11 00:18:48;;;;;;;11.60;10.40;;;16.40;99.90;;;;;;2095209;28;20314;-73
2023/09/11 00:19:49;;;;;;;11.87;10.67;;;16.30;99.90;;;;;;2103332;28;20245;-73
2023/09/11 00:20:50;;;;;;;10.30;9.20;;;16.30;99.90;;;;;;2101071;28;20470;-73
2023/09/11 00:21:51;;;;;;;11.00;9.90;;;16.30;99.90;;;;;;2094991;28;20287;-73
2023/09/11 00:22:51;;;;;;;10.90;9.80;;;16.30;99.90;;;;;;2102447;28;20471;-73
2023/09/11 00:23:52;;;;;;;11.40;10.40;;;16.30;99.90;;;;;;2095389;28;20283;-73
2023/09/11 00:24:53;;;;;;;9.90;9.00;;;16.30;99.90;;;;;;2098380;28;20292;-73
2023/09/11 00:25:53;;;;;;;10.63;9.73;;;16.30;99.90;;;;;;2104416;28;20258;-73
2023/09/11 00:26:55;;;;;;;10.90;9.40;;;16.20;99.90;;;;;;2102002;28;20661;-73
2023/09/11 00:27:56;;;;;;;12.17;11.00;;;16.10;99.90;;;;;;2103324;28;20226;-73
2023/09/11 00:28:57;;;;;;;10.07;9.00;;;16.10;99.90;;;;;;2103741;28;20875;-73
2023/09/11 00:29:57;;;;;;;10.37;9.27;;;16.10;99.90;;;;;;2101743;28;20647;-73
2023/09/11 00:31:01;;;;;;;10.70;9.00;;;16.10;99.90;;;;;;2093201;28;20216;-73
2023/09/11 00:32:02;;;;;;;10.60;9.13;;;16.10;99.90;;;;;;2095707;28;20227;-73
2023/09/11 00:33:04;;;;;;;10.60;9.50;;;16.10;99.90;;;;;;2102565;28;20463;-74
2023/09/11 00:34:04;;;;;;;10.27;9.33;;;16.10;99.90;;;;;;2102113;28;20431;-74
2023/09/11 00:35:05;;;;;;;12.17;10.97;;;16.10;99.90;;;;;;2100760;28;20431;-73
2023/09/11 00:36:06;;;;;;;10.50;9.40;;;16.20;99.90;;;;;;2102467;28;20229;-73
2023/09/11 00:37:07;;;;;;;10.47;9.40;;;16.20;99.90;;;;;;2094965;28;20447;-73
2023/09/11 00:38:07;;;;;;;11.30;10.20;;;16.20;99.90;;;;;;2103570;28;20277;-73
2023/09/11 00:39:09;;;;;;;11.27;9.87;;;16.20;99.90;;;;;;2103498;28;20229;-73
2023/09/11 00:40:10;;;;;;;10.70;9.60;;;16.20;99.90;;;;;;2102671;28;20278;-73
2023/09/11 00:41:11;;;;;;;10.73;9.73;;;16.20;99.90;;;;;;2101835;28;20431;-73
2023/09/11 00:42:11;;;;;;;11.30;10.20;;;16.20;99.90;;;;;;2101535;28;20991;-73
2023/09/11 00:43:12;;;;;;;11.57;9.77;;;16.20;99.90;;;;;;2103062;28;20458;-74
2023/09/11 00:44:13;;;;;;;10.53;9.47;;;16.20;99.90;;;;;;2095657;28;20304;-73
2023/09/11 00:45:13;;;;;;;12.20;10.13;;;16.10;99.90;;;;;;2092806;28;20220;-73
2023/09/11 00:46:14;;;;;;;11.37;9.57;;;16.00;99.90;;;;;;2095952;28;20192;-73
2023/09/11 00:47:15;;;;;;;10.27;9.27;;;16.00;99.90;;;;;;2088095;28;20192;-73
2023/09/11 00:48:17;;;;;;;11.47;10.37;;;16.00;99.90;;;;;;2087992;28;20898;-73
2023/09/11 00:49:19;;;;;;;11.57;10.37;;;16.00;99.90;;;;;;2096886;28;20586;-73
2023/09/11 00:50:22;;;;;;;11.37;10.37;;;16.00;99.90;;;;;;2094796;28;20820;-73
2023/09/11 00:51:23;;;;;;;10.30;9.30;;;16.10;99.90;;;;;;2095481;28;20536;-73
2023/09/11 00:52:24;;;;;;;10.70;9.60;;;16.00;99.90;;;;;;2104656;28;20529;-73
2023/09/11 00:53:26;;;;;;;10.98;9.88;;;16.10;99.90;;;;;;2112612;28;20217;-73
2023/09/11 00:54:27;;;;;;;10.93;9.93;;;16.10;99.90;;;;;;2096002;28;20220;-73
2023/09/11 00:55:28;;;;;;;10.10;9.13;;;16.10;99.90;;;;;;2080143;28;20220;-73
2023/09/11 00:56:30;;;;;;;10.80;9.80;;;16.00;99.90;;;;;;2094830;28;20628;-73
2023/09/11 00:57:30;;;;;;;13.07;10.27;;;16.10;99.90;;;;;;2097271;28;20948;-73
2023/09/11 00:58:31;;;;;;;11.03;9.97;;;16.00;99.90;;;;;;2088939;28;20465;-73
2023/09/11 00:59:32;;;;;;;12.10;9.83;;;16.00;99.90;;;;;;2102263;28;20715;-73
2023/09/11 01:00:33;;;;;;;11.20;9.93;;;16.00;99.90;;;;;;2096670;28;20802;-73
2023/09/11 01:01:34;;;;;;;11.93;10.73;;;16.00;99.90;;;;;;2095546;28;20285;-73
2023/09/11 01:02:36;;;;;;;11.50;10.30;;;16.00;99.90;;;;;;2094411;28;20593;-73
2023/09/11 01:03:37;;;;;;;13.87;10.97;;;16.00;99.90;;;;;;2095556;28;20216;-73
2023/09/11 01:04:38;;;;;;;12.30;9.83;;;16.00;99.90;;;;;;2104313;28;20439;-73
2023/09/11 01:05:39;;;;;;;11.10;9.93;;;16.00;99.90;;;;;;2101089;28;20443;-73
2023/09/11 01:06:39;;;;;;;10.80;9.80;;;16.00;99.90;;;;;;2092453;28;20254;-73
2023/09/11 01:07:40;;;;;;;11.63;10.17;;;15.90;99.90;;;;;;2086745;28;20223;-73
2023/09/11 01:08:41;;;;;;;12.03;10.27;;;15.90;99.90;;;;;;2079209;28;20216;-73
2023/09/11 01:09:42;;;;;;;10.83;9.83;;;15.90;99.90;;;;;;2083838;28;20236;-73
2023/09/11 01:10:42;;;;;;;10.40;9.40;;;15.90;99.90;;;;;;2093766;28;20871;-73
2023/09/11 01:11:43;;;;;;;10.40;9.37;;;15.90;99.90;;;;;;2096062;28;20303;-73
2023/09/11 01:12:44;;;;;;;11.13;10.00;;;15.90;99.90;;;;;;2086016;28;20273;-74
2023/09/11 01:13:45;;;;;;;10.23;9.33;;;15.90;99.90;;;;;;2087272;28;20649;-73
2023/09/11 01:14:46;;;;;;;10.67;9.67;;;15.90;99.90;;;;;;2092004;28;20708;-73
2023/09/11 01:16:06;;;;;;;10.93;9.93;;;15.80;99.90;;;;;;2102754;28;20455;-73
2023/09/11 01:17:20;;;;;;;11.40;9.65;;;15.80;99.90;;;;;;2090750;28;20224;-73
2023/09/11 01:18:35;;;;;;;10.98;9.88;;;15.80;99.90;;;;;;2090024;28;20187;-73
2023/09/11 01:19:44;;;;;;;12.10;10.40;;;15.80;99.90;;;;;;2095231;28;20646;-73
2023/09/11 01:20:54;;;;;;;12.03;10.93;;;15.80;99.90;;;;;;2104761;28;20515;-73
2023/09/11 01:22:31;;;;;;;11.32;10.32;;;15.80;99.90;;;;;;2098123;28;20467;-72
2023/09/11 01:24:15;;;;;;;10.93;9.95;;;15.80;99.90;;;;;;2102230;28;20688;-73
2023/09/11 01:25:43;;;;;;;12.00;10.10;;;15.90;99.90;;;;;;2096335;28;20363;-73
2023/09/11 01:27:14;;;;;;;10.60;9.07;;;15.70;99.90;;;;;;2089484;28;20258;-73
2023/09/11 01:28:56;;;;;;;11.35;10.23;;;15.80;99.90;;;;;;2094868;28;20570;-73
2023/09/11 01:29:58;;;;;;;11.10;10.00;;;15.70;99.90;;;;;;2101772;28;20314;-73
2023/09/11 01:30:59;;;;;;;11.30;10.30;;;15.70;99.90;;;;;;2085358;28;20315;-73
2023/09/11 01:32:04;;;;;;;10.45;9.55;;;15.70;99.90;;;;;;2085596;28;20463;-73
2023/09/11 01:33:05;;;;;;;11.18;10.10;;;15.70;99.90;;;;;;2094616;28;20223;-74
2023/09/11 01:34:07;;;;;;;10.63;9.73;;;15.60;99.90;;;;;;2094574;28;20198;-73
2023/09/11 01:35:08;;;;;;;11.50;10.30;;;15.60;99.90;;;;;;2096157;28;20700;-74
2023/09/11 01:36:08;;;;;;;11.13;9.83;;;15.60;99.90;;;;;;2103379;28;20194;-73
2023/09/11 01:37:09;;;;;;;11.70;10.10;;;15.60;99.90;;;;;;2103741;28;20195;-73
2023/09/11 01:38:10;;;;;;;11.93;10.53;;;15.60;99.90;;;;;;2105751;28;20187;-73
2023/09/11 01:39:11;;;;;;;12.25;10.80;;;15.60;99.90;;;;;;2090305;28;20235;-73
2023/09/11 01:40:12;;;;;;;11.55;10.45;;;15.60;99.90;;;;;;2086977;28;20267;-73
2023/09/11 01:41:14;;;;;;;13.30;10.30;;;15.60;99.90;;;;;;2094667;28;20566;-73
2023/09/11 01:42:21;;;;;;;11.40;10.15;;;15.60;99.90;;;;;;2095470;28;20179;-73
2023/09/11 01:43:26;;;;;;;11.13;9.90;;;15.60;99.90;;;;;;2090518;28;20564;-73
2023/09/11 01:44:53;;;;;;;11.63;10.53;;;15.60;99.90;;;;;;2095578;28;20246;-73
2023/09/11 01:45:53;;;;;;;10.93;9.82;;;15.60;99.90;;;;;;2100926;28;20459;-73
2023/09/11 01:46:56;;;;;;;12.47;11.00;;;15.60;99.90;;;;;;2094466;28;20653;-73
2023/09/11 01:47:59;;;;;;;13.95;11.10;;;15.60;99.90;;;;;;2095037;28;20226;-73
2023/09/11 01:49:02;;;;;;;13.63;11.60;;;15.60;99.90;;;;;;2082532;28;20715;-73
2023/09/11 01:50:04;;;;;;;12.43;11.13;;;15.60;99.90;;;;;;2080804;28;20216;-73
2023/09/11 01:51:07;;;;;;;13.15;11.48;;;15.60;99.90;;;;;;2093032;28;20215;-73
2023/09/11 01:52:09;;;;;;;12.75;11.13;;;15.70;99.90;;;;;;2099816;28;20188;-73
2023/09/11 01:53:11;;;;;;;12.88;11.57;;;15.60;99.90;;;;;;2101889;28;20203;-73
2023/09/11 01:54:13;;;;;;;11.68;10.48;;;15.60;99.90;;;;;;2095501;28;20274;-72
2023/09/11 01:55:13;;;;;;;10.88;9.45;;;15.70;99.90;;;;;;2083102;28;20195;-73
2023/09/11 01:56:15;;;;;;;10.67;9.67;;;15.60;99.90;;;;;;2087404;28;20571;-73
2023/09/11 01:57:16;;;;;;;11.38;10.30;;;15.60;99.90;;;;;;2094776;28;20614;-73
2023/09/11 01:58:16;;;;;;;12.00;10.80;;;15.60;99.90;;;;;;2091399;28;20258;-73
2023/09/11 01:59:17;;;;;;;12.57;11.27;;;15.60;99.90;;;;;;2087076;28;20188;-73
2023/09/11 02:00:18;;;;;;;11.83;10.67;;;15.60;99.90;;;;;;2078632;28;20200;-74
2023/09/11 02:01:18;;;;;;;11.43;10.33;;;15.60;99.90;;;;;;2078639;28;20685;-73
2023/09/11 02:02:19;;;;;;;12.57;10.90;;;15.50;99.90;;;;;;2093639;28;20241;-73
2023/09/11 02:03:20;;;;;;;11.63;10.57;;;15.60;99.90;;;;;;2104118;28;20628;-73
2023/09/11 02:04:21;;;;;;;12.80;11.23;;;15.60;99.90;;;;;;2095681;28;20200;-73
2023/09/11 02:05:22;;;;;;;15.23;11.60;;;15.60;99.90;;;;;;2097678;28;20206;-73
2023/09/11 02:06:23;;;;;;;12.38;11.10;;;15.60;99.90;;;;;;2099000;28;20905;-73
2023/09/11 02:07:24;;;;;;;12.07;10.98;;;15.60;99.90;;;;;;2102981;28;20233;-74
2023/09/11 02:08:26;;;;;;;14.77;11.10;;;15.50;99.90;;;;;;2101990;28;20246;-74
2023/09/11 02:09:27;;;;;;;12.10;10.85;;;15.50;99.90;;;;;;2087061;28;20354;-73
2023/09/11 02:10:27;;;;;;;12.07;9.13;;;15.60;99.90;;;;;;2096191;28;20281;-73
2023/09/11 02:11:28;;;;;;;12.30;11.10;;;15.50;99.90;;;;;;2100413;28;20220;-74
2023/09/11 02:12:29;;;;;;;11.07;9.90;;;15.50;99.90;;;;;;2094993;28;20381;-75
2023/09/11 02:13:30;;;;;;;11.55;10.35;;;15.40;99.90;;;;;;2103529;28;20304;-73
2023/09/11 02:14:31;;;;;;;12.30;10.57;;;15.40;99.90;;;;;;2103387;28;20226;-74
2023/09/11 02:15:31;;;;;;;12.97;11.63;;;15.40;99.90;;;;;;2097818;28;20247;-73
2023/09/11 02:16:32;;;;;;;11.87;10.70;;;15.40;99.90;;;;;;2098592;28;20298;-73
2023/09/11 02:17:33;;;;;;;11.07;10.07;;;15.50;99.90;;;;;;2094006;28;20274;-73
2023/09/11 02:18:34;;;;;;;11.90;10.80;;;15.50;99.90;;;;;;2103651;28;20693;-73
2023/09/11 02:19:34;;;;;;;11.17;10.00;;;15.50;99.90;;;;;;2097477;28;20246;-73
2023/09/11 02:20:35;;;;;;;11.50;10.27;;;15.50;99.90;;;;;;2100152;28;20315;-73
2023/09/11 02:21:36;;;;;;;11.90;10.60;;;15.50;99.90;;;;;;2085870;28;20219;-73
2023/09/11 02:22:36;;;;;;;11.60;10.40;;;15.50;99.90;;;;;;2086561;28;20706;-73
2023/09/11 02:23:37;;;;;;;11.90;10.70;;;15.50;99.90;;;;;;2091374;28;20303;-73
2023/09/11 02:24:39;;;;;;;11.40;10.23;;;15.50;99.90;;;;;;2094841;28;20222;-73
2023/09/11 02:25:41;;;;;;;10.70;9.70;;;15.50;99.90;;;;;;2086059;28;20780;-73
2023/09/11 02:26:43;;;;;;;14.00;11.25;;;15.50;99.90;;;;;;2096604;28;20233;-73
2023/09/11 02:27:44;;;;;;;12.07;10.88;;;15.50;99.90;;;;;;2094636;28;20223;-73
2023/09/11 02:28:45;;;;;;;12.15;10.95;;;15.40;99.90;;;;;;2095317;28;20241;-73
2023/09/11 02:29:46;;;;;;;11.87;10.77;;;15.50;99.90;;;;;;2097113;28;20361;-73
2023/09/11 02:30:47;;;;;;;13.05;11.75;;;15.50;99.90;;;;;;2098437;28;20303;-73
2023/09/11 02:31:48;;;;;;;12.33;11.13;;;15.40;99.90;;;;;;2097136;28;20223;-73
2023/09/11 02:32:49;;;;;;;12.70;11.43;;;15.40;99.90;;;;;;2102721;28;20663;-73
2023/09/11 02:33:49;;;;;;;12.60;11.40;;;15.40;99.90;;;;;;2096414;28;20592;-73
2023/09/11 02:34:50;;;;;;;12.27;11.17;;;15.40;99.90;;;;;;2091429;28;20216;-73
2023/09/11 02:35:56;;;;;;;10.97;9.97;;;15.40;99.90;;;;;;2086730;28;20208;-73
2023/09/11 02:36:57;;;;;;;12.30;11.15;;;15.40;99.90;;;;;;2095307;28;20280;-73
2023/09/11 02:37:58;;;;;;;14.30;11.47;;;15.40;99.90;;;;;;2098393;28;20219;-73
2023/09/11 02:38:59;;;;;;;11.70;10.57;;;15.40;99.90;;;;;;2103192;28;20223;-73
2023/09/11 02:40:00;;;;;;;11.73;10.63;;;15.40;99.90;;;;;;2096393;28;20223;-73
2023/09/11 02:41:01;;;;;;;13.50;12.10;;;15.40;99.90;;;;;;2100610;28;20326;-73
2023/09/11 02:42:02;;;;;;;14.27;10.90;;;15.40;99.90;;;;;;2093900;28;20663;-73
2023/09/11 02:43:03;;;;;;;12.43;11.23;;;15.40;99.90;;;;;;2086032;28;20299;-75
2023/09/11 02:44:04;;;;;;;12.68;11.07;;;15.40;99.90;;;;;;2094617;28;20253;-74
2023/09/11 02:45:07;;;;;;;11.63;10.43;;;15.40;99.90;;;;;;2095468;28;20274;-74
2023/09/11 02:46:08;;;;;;;14.20;10.75;;;15.40;99.90;;;;;;2080753;28;20193;-73
2023/09/11 02:47:08;;;;;;;13.10;11.30;;;15.40;99.90;;;;;;2086735;28;20211;-73
2023/09/11 02:48:10;;;;;;;12.10;10.77;;;15.40;99.90;;;;;;2095089;28;20184;-73
2023/09/11 02:49:11;;;;;;;11.88;10.77;;;15.40;99.90;;;;;;2095098;28;20187;-73
2023/09/11 02:50:12;;;;;;;11.73;10.63;;;15.40;99.90;;;;;;2086138;28;20191;-73
2023/09/11 02:51:14;;;;;;;14.77;11.27;;;15.40;99.90;;;;;;2091244;28;20689;-73
2023/09/11 02:52:15;;;;;;;13.02;11.60;;;15.30;99.90;;;;;;2091584;28;20190;-73
2023/09/11 02:53:17;;;;;;;12.80;11.60;;;15.30;99.90;;;;;;2092455;28;20595;-73
2023/09/11 02:54:19;;;;;;;12.68;11.48;;;15.30;99.90;;;;;;2088516;28;20188;-73
2023/09/11 02:55:20;;;;;;;13.65;12.35;;;15.30;99.90;;;;;;2088833;28;20189;-73
2023/09/11 02:56:20;;;;;;;13.30;11.93;;;15.30;99.90;;;;;;2094844;28;20183;-73
2023/09/11 02:57:22;;;;;;;13.60;12.30;;;15.30;99.90;;;;;;2094834;28;20266;-73
2023/09/11 02:58:23;;;;;;;14.00;12.35;;;15.30;99.90;;;;;;2092174;28;20240;-73
2023/09/11 02:59:24;;;;;;;14.15;11.98;;;15.30;99.90;;;;;;2089670;28;20228;-73
2023/09/11 03:00:25;;;;;;;13.93;11.80;;;15.30;99.90;;;;;;2097766;28;20219;-73
2023/09/11 03:01:26;;;;;;;14.20;12.70;;;15.30;99.90;;;;;;2103019;28;20632;-73
2023/09/11 03:02:27;;;;;;;13.13;11.82;;;15.30;99.90;;;;;;2099679;28;20230;-73
2023/09/11 03:03:29;;;;;;;12.85;11.52;;;15.30;99.90;;;;;;2099466;28;20230;-73
2023/09/11 03:04:29;;;;;;;13.35;12.05;;;15.30;99.90;;;;;;2093351;28;20231;-73
2023/09/11 03:05:33;;;;;;;13.23;11.97;;;15.30;99.90;;;;;;2102873;28;20242;-73
2023/09/11 03:06:34;;;;;;;12.32;11.07;;;15.30;99.90;;;;;;2101246;28;20355;-73
2023/09/11 03:07:34;;;;;;;12.93;11.67;;;15.30;99.90;;;;;;2103149;28;20438;-73
2023/09/11 03:08:35;;;;;;;12.80;11.50;;;15.30;99.90;;;;;;2103644;28;20223;-73
2023/09/11 03:09:36;;;;;;;13.50;12.10;;;15.30;99.90;;;;;;2093713;28;20223;-73
2023/09/11 03:10:38;;;;;;;14.20;11.50;;;15.30;99.90;;;;;;2097634;28;20214;-73
2023/09/11 03:11:39;;;;;;;13.23;10.57;;;15.30;99.90;;;;;;2102451;28;20463;-73
2023/09/11 03:12:39;;;;;;;15.57;12.53;;;15.30;99.90;;;;;;2094452;28;20247;-73
2023/09/11 03:13:40;;;;;;;11.80;10.70;;;15.30;99.90;;;;;;2093453;28;20218;-73
2023/09/11 03:14:41;;;;;;;12.93;11.63;;;15.30;99.90;;;;;;2096360;28;20211;-73
2023/09/11 03:15:42;;;;;;;13.80;12.50;;;15.30;99.90;;;;;;2098482;28;20210;-73
2023/09/11 03:16:43;;;;;;;13.10;11.80;;;15.30;99.90;;;;;;2099423;28;21175;-73
2023/09/11 03:17:49;;;;;;;14.67;12.10;;;15.30;99.90;;;;;;2091807;28;20230;-73
2023/09/11 03:18:50;;;;;;;12.27;11.07;;;15.30;99.90;;;;;;2084618;28;20227;-73
2023/09/11 03:19:50;;;;;;;14.13;12.07;;;15.20;99.90;;;;;;2094936;28;20215;-73
2023/09/11 03:20:55;;;;;;;11.90;10.80;;;15.20;99.90;;;;;;2094453;28;20219;-73
2023/09/11 03:21:56;;;;;;;11.95;10.82;;;15.30;99.90;;;;;;2103531;28;20214;-73
2023/09/11 03:22:59;;;;;;;12.35;11.10;;;15.30;99.90;;;;;;2096732;28;20733;-73
2023/09/11 03:24:00;;;;;;;13.35;12.05;;;15.20;99.90;;;;;;2093826;28;20224;-73
2023/09/11 03:25:00;;;;;;;13.13;11.93;;;15.30;99.90;;;;;;2091783;28;20219;-73
2023/09/11 03:26:01;;;;;;;13.60;12.30;;;15.30;99.90;;;;;;2090459;28;20336;-73
2023/09/11 03:27:02;;;;;;;14.93;13.10;;;15.30;99.90;;;;;;2076775;28;20255;-73
2023/09/11 03:28:03;;;;;;;13.67;12.37;;;15.30;99.90;;;;;;2084073;28;20453;-74
2023/09/11 03:29:04;;;;;;;14.50;11.70;;;15.20;99.90;;;;;;2094350;28;20199;-74
2023/09/11 03:30:07;;;;;;;11.80;10.60;;;15.20;99.90;;;;;;2093239;28;20265;-74
2023/09/11 03:31:08;;;;;;;13.52;12.20;;;15.20;99.90;;;;;;2097810;28;20190;-73
2023/09/11 03:32:09;;;;;;;13.53;12.23;;;15.20;99.90;;;;;;2095133;28;20563;-74
2023/09/11 03:33:12;;;;;;;12.30;11.10;;;15.20;99.90;;;;;;2090919;28;20206;-74
2023/09/11 03:34:13;;;;;;;12.45;11.25;;;15.20;99.90;;;;;;2091846;28;20654;-73
2023/09/11 03:35:14;;;;;;;12.23;11.03;;;15.20;99.90;;;;;;2090017;28;20188;-73
2023/09/11 03:36:18;;;;;;;11.60;10.40;;;15.20;99.90;;;;;;2085033;28;20658;-74
2023/09/11 03:37:18;;;;;;;12.23;11.00;;;15.20;99.90;;;;;;2083270;28;20196;-74
2023/09/11 03:38:19;;;;;;;12.30;11.00;;;15.20;99.90;;;;;;2091368;28;20698;-73
2023/09/11 03:39:20;;;;;;;12.27;11.17;;;15.20;99.90;;;;;;2098751;28;20217;-73
2023/09/11 03:40:22;;;;;;;12.30;11.20;;;15.20;99.90;;;;;;2098913;28;20187;-73
2023/09/11 03:41:24;;;;;;;12.70;11.43;;;15.10;99.90;;;;;;2091156;28;20311;-73
2023/09/11 03:42:25;;;;;;;13.18;11.48;;;15.20;99.90;;;;;;2099059;28;20239;-73
2023/09/11 03:43:25;;;;;;;12.45;11.30;;;15.20;99.90;;;;;;2104065;28;20279;-73
2023/09/11 03:44:26;;;;;;;11.90;10.80;;;15.10;99.90;;;;;;2099610;28;20306;-73
2023/09/11 03:45:28;;;;;;;12.43;11.17;;;15.10;99.90;;;;;;2103134;28;20230;-73
2023/09/11 03:46:28;;;;;;;12.80;10.68;;;15.10;99.90;;;;;;2097874;28;20222;-73
2023/09/11 03:47:29;;;;;;;13.00;11.50;;;15.20;99.90;;;;;;2089967;28;20313;-73
2023/09/11 03:48:30;;;;;;;12.90;11.13;;;15.20;99.90;;;;;;2101386;28;20223;-73
2023/09/11 03:49:30;;;;;;;12.33;11.13;;;15.20;99.90;;;;;;2103125;28;20305;-73
2023/09/11 03:50:31;;;;;;;12.17;10.97;;;15.20;99.90;;;;;;2098503;28;20223;-74
2023/09/11 03:51:32;;;;;;;13.93;12.53;;;15.20;99.90;;;;;;2100703;28;20223;-73
2023/09/11 03:52:33;;;;;;;11.70;10.60;;;15.20;99.90;;;;;;2092392;28;20223;-73
2023/09/11 03:53:34;;;;;;;12.87;11.57;;;15.20;99.90;;;;;;2098367;28;20783;-73
2023/09/11 03:54:35;;;;;;;13.18;11.93;;;15.10;99.90;;;;;;2092262;28;20242;-73
2023/09/11 03:55:36;;;;;;;13.57;12.20;;;15.20;99.90;;;;;;2086364;28;20721;-73
2023/09/11 03:56:37;;;;;;;13.57;12.18;;;15.20;99.90;;;;;;2095073;28;20230;-73
2023/09/11 03:57:38;;;;;;;12.20;10.90;;;15.10;99.90;;;;;;2102870;28;20666;-73
2023/09/11 03:58:39;;;;;;;13.60;12.30;;;15.20;99.90;;;;;;2101771;28;20245;-73
2023/09/11 03:59:40;;;;;;;11.95;10.75;;;15.20;99.90;;;;;;2102471;28;20235;-73
2023/09/11 04:00:41;;;;;;;12.03;10.87;;;15.10;99.90;;;;;;2094598;28;20207;-73
2023/09/11 04:01:42;;;;;;;12.05;10.85;;;15.10;99.90;;;;;;2085875;28;20239;-73
2023/09/11 04:02:42;;;;;;;11.83;10.73;;;15.10;99.90;;;;;;2086693;28;20780;-73
2023/09/11 04:03:43;;;;;;;12.67;11.40;;;15.10;99.90;;;;;;2093689;28;20215;-73
2023/09/11 04:04:44;;;;;;;12.77;11.43;;;15.10;99.90;;;;;;2098677;28;20221;-73
2023/09/11 04:05:44;;;;;;;12.83;11.63;;;15.00;99.90;;;;;;2091189;28;20642;-73
2023/09/11 04:06:45;;;;;;;12.83;10.60;;;15.00;99.90;;;;;;2094405;28;20227;-73
2023/09/11 04:07:46;;;;;;;10.97;9.87;;;15.00;99.90;;;;;;2094410;28;20211;-73
2023/09/11 04:08:48;;;;;;;12.20;10.93;;;15.00;99.90;;;;;;2090786;28;20220;-73
2023/09/11 04:09:49;;;;;;;12.80;11.50;;;15.00;99.90;;;;;;2095222;28;20223;-73
2023/09/11 04:10:50;;;;;;;12.87;11.57;;;14.90;99.90;;;;;;2102001;28;20231;-73
2023/09/11 04:11:51;;;;;;;12.70;11.33;;;14.90;99.90;;;;;;2098930;28;20946;-73
2023/09/11 04:12:52;;;;;;;12.35;11.15;;;15.00;99.90;;;;;;2099662;28;20218;-73
2023/09/11 04:13:52;;;;;;;12.13;11.00;;;15.00;99.90;;;;;;2099498;28;20216;-73
2023/09/11 04:14:53;;;;;;;12.80;11.40;;;15.00;99.90;;;;;;2098889;28;20226;-73
2023/09/11 04:15:54;;;;;;;11.53;10.43;;;15.00;99.90;;;;;;2098926;28;20716;-73
2023/09/11 04:16:56;;;;;;;12.23;11.13;;;15.00;99.90;;;;;;2098778;28;20219;-73
2023/09/11 04:17:57;;;;;;;12.02;10.80;;;15.00;99.90;;;;;;2092425;28;20222;-74
2023/09/11 04:18:59;;;;;;;13.60;12.30;;;15.00;99.90;;;;;;2090277;28;20294;-73
2023/09/11 04:20:00;;;;;;;12.27;11.07;;;14.90;99.90;;;;;;2095391;28;20223;-73
2023/09/11 04:21:05;;;;;;;12.53;11.23;;;15.00;99.90;;;;;;2096162;28;20250;-73
2023/09/11 04:22:06;;;;;;;13.30;12.05;;;15.00;99.90;;;;;;2097152;28;20582;-74
2023/09/11 04:23:09;;;;;;;12.95;11.80;;;14.90;99.90;;;;;;2100912;28;20207;-73
2023/09/11 04:24:12;;;;;;;12.50;11.23;;;14.90;99.90;;;;;;2100231;28;20205;-74
2023/09/11 04:25:13;;;;;;;12.00;10.90;;;14.90;99.90;;;;;;2101239;28;20188;-74
2023/09/11 04:26:13;;;;;;;12.43;11.23;;;14.90;99.90;;;;;;2107399;28;20203;-74
2023/09/11 04:27:14;;;;;;;11.93;10.70;;;14.90;99.90;;;;;;2096141;28;20236;-74
2023/09/11 04:28:16;;;;;;;11.67;10.57;;;15.00;99.90;;;;;;2096286;28;20649;-74
2023/09/11 04:29:17;;;;;;;12.68;11.38;;;14.90;99.90;;;;;;2102109;28;20187;-74
2023/09/11 04:30:18;;;;;;;13.40;12.07;;;14.90;99.90;;;;;;2096976;28;20179;-73
2023/09/11 04:31:19;;;;;;;12.63;11.32;;;14.90;99.90;;;;;;2101568;28;20219;-73
2023/09/11 04:32:20;;;;;;;13.53;12.13;;;14.90;99.90;;;;;;2096409;28;20194;-73
2023/09/11 04:33:21;;;;;;;13.25;11.68;;;14.90;99.90;;;;;;2088371;28;20250;-74
2023/09/11 04:34:22;;;;;;;13.43;12.07;;;14.90;99.90;;;;;;2095184;28;20272;-73
2023/09/11 04:35:23;;;;;;;13.70;12.30;;;14.90;99.90;;;;;;2095872;28;20243;-73
2023/09/11 04:36:24;;;;;;;13.47;12.07;;;15.00;99.90;;;;;;2103545;28;20226;-73
2023/09/11 04:37:26;;;;;;;14.63;12.13;;;15.00;99.90;;;;;;2103955;28;20234;-73
2023/09/11 04:38:27;;;;;;;14.52;11.80;;;15.00;99.90;;;;;;2084527;28;20297;-73
2023/09/11 04:39:27;;;;;;;12.13;10.93;;;15.00;99.90;;;;;;2095887;28;20747;-73
2023/09/11 04:40:28;;;;;;;14.23;11.60;;;15.00;99.90;;;;;;2093673;28;20232;-73
2023/09/11 04:41:29;;;;;;;13.87;12.03;;;15.00;99.90;;;;;;2087504;28;20234;-73
2023/09/11 04:42:30;;;;;;;12.67;11.47;;;15.00;99.90;;;;;;2086795;28;20247;-73
2023/09/11 04:43:30;;;;;;;12.20;11.10;;;15.10;99.90;;;;;;2095299;28;20586;-73
2023/09/11 04:44:31;;;;;;;13.27;11.97;;;15.00;99.90;;;;;;2093506;28;20223;-73
2023/09/11 04:45:33;;;;;;;12.20;10.93;;;15.00;99.90;;;;;;2092447;28;20228;-73
2023/09/11 04:46:34;;;;;;;13.02;11.70;;;15.00;99.90;;;;;;2087284;28;20800;-73
2023/09/11 04:47:35;;;;;;;12.67;11.43;;;15.00;99.90;;;;;;2087667;28;20235;-73
2023/09/11 04:48:36;;;;;;;12.35;11.05;;;15.00;99.90;;;;;;2104157;28;20610;-73
2023/09/11 04:49:37;;;;;;;13.27;11.93;;;15.00;99.90;;;;;;2104194;28;20301;-73
2023/09/11 04:50:37;;;;;;;13.60;12.20;;;15.00;99.90;;;;;;2092719;28;20238;-73
2023/09/11 04:51:38;;;;;;;13.37;12.03;;;15.00;99.90;;;;;;2088032;28;20231;-73
2023/09/11 04:52:39;;;;;;;12.70;11.40;;;15.00;99.90;;;;;;2082045;28;20613;-71
2023/09/11 04:53:39;;;;;;;11.80;10.70;;;15.00;99.90;;;;;;2102391;28;20338;-71
2023/09/11 04:54:40;;;;;;;11.27;10.17;;;15.00;99.90;;;;;;2100133;28;20214;-71
2023/09/11 04:55:42;;;;;;;12.27;11.00;;;15.00;99.90;;;;;;2103323;28;20284;-71
2023/09/11 04:56:42;;;;;;;14.65;12.43;;;14.90;99.90;;;;;;2095551;28;20245;-71
2023/09/11 04:57:43;;;;;;;13.23;11.77;;;14.90;99.90;;;;;;2095631;28;20219;-71
2023/09/11 04:58:44;;;;;;;12.37;11.07;;;15.00;99.90;;;;;;2101945;28;20222;-71
2023/09/11 04:59:44;;;;;;;13.93;12.30;;;15.00;99.90;;;;;;2100598;28;20222;-71
2023/09/11 05:00:45;;;;;;;12.40;11.20;;;15.00;99.90;;;;;;2100658;28;20215;-71
2023/09/11 05:01:46;;;;;;;13.00;11.80;;;15.00;99.90;;;;;;2103954;28;20211;-71
2023/09/11 05:02:48;;;;;;;12.33;11.10;;;15.00;99.90;;;;;;2104347;28;20321;-71
2023/09/11 05:03:49;;;;;;;12.73;11.25;;;15.00;99.90;;;;;;2095278;28;20219;-71
2023/09/11 05:04:50;;;;;;;12.88;11.57;;;15.00;99.90;;;;;;2096666;28;20239;-71
2023/09/11 05:05:51;;;;;;;13.60;12.20;;;15.00;99.90;;;;;;2101659;28;20593;-71
2023/09/11 05:06:53;;;;;;;12.37;11.17;;;15.00;99.90;;;;;;2103144;28;20700;-71
2023/09/11 05:07:54;;;;;;;13.90;11.83;;;15.00;99.90;;;;;;2089908;28;20223;-73
2023/09/11 05:08:56;;;;;;;13.15;11.73;;;15.00;99.90;;;;;;2103026;28;20455;-71
2023/09/11 05:09:57;;;;;;;11.88;10.77;;;15.00;99.90;;;;;;2107982;28;20214;-71
2023/09/11 05:11:01;;;;;;;13.15;11.85;;;15.00;99.90;;;;;;2103033;28;20215;-70
2023/09/11 05:12:02;;;;;;;13.90;12.38;;;15.00;99.90;;;;;;2095068;28;20624;-71
2023/09/11 05:13:03;;;;;;;12.73;11.43;;;15.00;99.90;;;;;;2086009;28;20299;-71
2023/09/11 05:14:04;;;;;;;12.83;11.63;;;15.00;99.90;;;;;;2084757;28;20318;-71
2023/09/11 05:15:05;;;;;;;12.23;11.07;;;15.00;99.90;;;;;;2099012;28;20428;-73